Time;durP1;ratioP1;P1;durP2;ratioP2;P2;SDS_P1;SDS_P2;PMS_P1;PMS_P2;Temp;Humidity;BMP_temperature;BMP_pressure;BME280_temperature;BME280_humidity;BME280_pressure;Samples;Min_cycle;Max_cycle;Signal;HPM_P1;HPM_P2
2022/05/20 00:00:36;;;;;;;15.25;11.98;;;;;;;13.66;77.09;102108.47;5013652;28;20026;-78
2022/05/20 00:03:01;;;;;;;17.00;13.23;;;;;;;13.63;77.65;102113.75;5013625;28;20125;-78
2022/05/20 00:05:27;;;;;;;19.10;14.57;;;;;;;13.64;77.67;102105.00;5012187;28;20568;-78
2022/05/20 00:07:53;;;;;;;20.52;14.73;;;;;;;13.63;77.78;102102.44;5013834;28;20099;-78
2022/05/20 00:10:19;;;;;;;16.25;12.85;;;;;;;13.56;76.96;102101.69;5013563;28;20105;-78
2022/05/20 00:12:46;;;;;;;19.75;14.07;;;;;;;13.50;78.05;102113.09;5013608;28;20057;-78
2022/05/20 00:15:14;;;;;;;20.70;14.65;;;;;;;13.47;78.02;102113.19;5013929;28;20022;-78
2022/05/20 00:17:39;;;;;;;21.10;15.63;;;;;;;13.47;78.32;102107.06;5013556;28;20021;-78
2022/05/20 00:20:07;;;;;;;19.30;15.52;;;;;;;13.46;78.15;102111.44;5012971;28;21681;-78
2022/05/20 00:22:32;;;;;;;21.83;15.65;;;;;;;13.44;78.59;102112.34;5012774;28;20389;-78
2022/05/20 00:27:41;;;;;;;18.77;14.52;;;;;;;13.40;78.24;102108.06;5012882;28;20123;-78
2022/05/20 00:30:07;;;;;;;19.83;15.82;;;;;;;13.35;78.02;102103.75;5013191;28;20481;-78
2022/05/20 00:32:32;;;;;;;19.50;15.05;;;;;;;13.33;78.00;102109.88;5012786;28;20381;-78
2022/05/20 00:34:58;;;;;;;18.80;14.15;;;;;;;13.31;77.78;102106.47;5013130;28;20545;-78
2022/05/20 00:37:23;;;;;;;22.77;15.13;;;;;;;13.31;78.13;102102.06;5012971;28;20022;-78
2022/05/20 00:39:48;;;;;;;22.52;15.13;;;;;;;13.27;77.45;102102.16;5012977;28;20033;-78
2022/05/20 00:42:17;;;;;;;17.63;13.73;;;;;;;13.24;76.78;102099.59;5012812;28;20026;-78
2022/05/20 00:44:42;;;;;;;18.27;13.70;;;;;;;13.18;76.67;102097.94;5012559;28;20029;-78
2022/05/20 00:47:09;;;;;;;16.75;13.18;;;;;;;13.13;76.40;102098.03;5012631;28;20022;-78
2022/05/20 00:49:36;;;;;;;17.08;12.30;;;;;;;13.11;76.28;102097.19;5012760;28;20112;-78
2022/05/20 00:52:04;;;;;;;15.18;10.98;;;;;;;13.05;76.01;102094.66;5012446;28;20026;-78
2022/05/20 00:54:38;;;;;;;13.23;10.38;;;;;;;13.02;76.18;102094.72;5012555;28;20022;-78
2022/05/20 00:57:12;;;;;;;12.55;9.85;;;;;;;12.98;76.99;102093.06;5012314;28;20034;-78
2022/05/20 00:59:42;;;;;;;22.42;10.55;;;;;;;12.94;76.83;102093.97;5011759;28;20396;-78
2022/05/20 01:02:15;;;;;;;16.65;11.43;;;;;;;12.87;76.81;102091.44;5012082;28;20037;-78
2022/05/20 01:04:42;;;;;;;40.80;14.48;;;;;;;12.84;77.95;102096.72;5012084;28;20477;-78
2022/05/20 01:07:08;;;;;;;15.93;12.60;;;;;;;12.82;78.11;102103.72;5011832;28;20534;-78
2022/05/20 01:09:36;;;;;;;14.77;11.05;;;;;;;12.80;77.23;102088.97;5011831;28;20430;-78
2022/05/20 01:12:02;;;;;;;18.85;11.65;;;;;;;12.76;77.65;102098.59;5011636;28;20049;-78
2022/05/20 01:14:27;;;;;;;22.35;13.25;;;;;;;12.73;77.70;102093.41;5012293;28;20412;-78
2022/05/20 01:16:53;;;;;;;22.17;12.45;;;;;;;12.72;77.99;102089.91;5011874;28;20038;-78
2022/05/20 01:19:35;;;;;;;18.98;13.35;;;;;;;12.71;77.86;102098.66;5012143;28;20034;-78
2022/05/20 01:22:02;;;;;;;27.50;13.65;;;;;;;12.68;78.55;102095.22;5011173;28;20037;-78
2022/05/20 01:24:27;;;;;;;49.53;14.77;;;;;;;12.64;78.70;102094.41;5011504;28;20033;-78
2022/05/20 01:26:53;;;;;;;55.00;13.65;;;;;;;12.61;79.03;102094.44;5011398;28;20034;-78
2022/05/20 01:29:19;;;;;;;15.20;12.02;;;;;;;12.55;78.41;102090.19;5011995;28;20022;-78
2022/05/20 01:31:44;;;;;;;17.23;11.05;;;;;;;12.54;78.83;102091.06;5011161;28;20034;-78
2022/05/20 01:34:09;;;;;;;27.98;10.75;;;;;;;12.54;78.76;102098.03;5011562;28;20033;-78
2022/05/20 01:36:34;;;;;;;17.20;10.05;;;;;;;12.54;78.48;102096.28;5011444;28;20083;-78
2022/05/20 01:39:00;;;;;;;14.77;10.77;;;;;;;12.55;78.51;102095.41;5012028;28;20045;-78
2022/05/20 01:41:38;;;;;;;33.15;10.98;;;;;;;12.51;78.93;102092.88;5011433;28;20113;-78
2022/05/20 01:44:09;;;;;;;35.60;10.88;;;;;;;12.47;79.34;102089.41;5011528;28;20108;-78
2022/05/20 01:47:02;;;;;;;20.95;9.88;;;;;;;12.47;78.80;102078.97;5011687;28;20091;-78
2022/05/20 01:49:37;;;;;;;14.15;9.40;;;;;;;12.47;78.42;102071.13;5011656;28;20061;-78
2022/05/20 01:52:27;;;;;;;26.27;8.95;;;;;;;12.43;78.52;102074.69;5011009;28;20021;-78
2022/05/20 01:55:11;;;;;;;11.05;8.75;;;;;;;12.41;78.45;102077.31;5010579;28;20033;-78
2022/05/20 01:57:43;;;;;;;20.95;8.80;;;;;;;12.42;78.93;102070.34;5011145;28;20076;-78
2022/05/20 02:00:12;;;;;;;;;;;;;;;12.51;76.81;102065.00;5010991;28;20100;-78
2022/05/20 02:02:45;;;;;;;22.85;10.02;;;;;;;12.46;79.14;102053.78;5011072;28;19920;-78
2022/05/20 02:05:33;;;;;;;33.53;10.43;;;;;;;12.45;78.77;102059.88;5010759;28;20116;-78
2022/05/20 02:08:04;;;;;;;15.07;9.50;;;;;;;12.39;79.35;102062.56;5010161;28;20030;-78
2022/05/20 02:10:56;;;;;;;21.25;9.52;;;;;;;12.37;78.99;102061.72;5009800;28;20386;-78
2022/05/20 02:13:25;;;;;;;13.95;10.43;;;;;;;12.30;80.15;102064.41;5011527;28;20026;-78
2022/05/20 02:15:55;;;;;;;19.55;10.88;;;;;;;12.31;80.80;102060.06;5026188;28;20041;-78
2022/05/20 02:18:30;;;;;;;13.70;10.25;;;;;;;12.35;80.00;102053.94;5010867;28;20113;-78
2022/05/20 02:21:02;;;;;;;23.25;11.13;;;;;;;12.36;79.25;102058.25;5011257;28;20068;-78
2022/05/20 02:23:33;;;;;;;15.23;9.77;;;;;;;12.36;79.15;102052.16;5010796;28;20080;-78
2022/05/20 02:26:04;;;;;;;15.70;10.00;;;;;;;12.35;79.20;102055.66;5009342;28;20053;-78
2022/05/20 02:28:35;;;;;;;15.15;10.45;;;;;;;12.32;79.49;102055.69;5010744;28;20026;-78
2022/05/20 02:31:04;;;;;;;39.75;11.52;;;;;;;12.30;79.98;102056.56;5010094;28;20044;-78
2022/05/20 02:33:30;;;;;;;17.10;11.48;;;;;;;12.32;80.15;102051.34;5010688;28;20029;-78
2022/05/20 02:36:15;;;;;;;28.95;11.90;;;;;;;12.34;79.72;102041.75;5010654;28;20040;-78
2022/05/20 02:38:41;;;;;;;35.72;12.75;;;;;;;12.34;79.99;102044.38;5010916;28;20029;-78
2022/05/20 02:41:08;;;;;;;22.35;11.25;;;;;;;12.28;79.53;102050.53;5010950;28;20040;-78
2022/05/20 02:43:33;;;;;;;28.35;11.60;;;;;;;12.24;79.60;102048.84;5010585;28;20018;-78
2022/05/20 02:45:59;;;;;;;25.92;11.32;;;;;;;12.24;80.08;102048.84;5010429;28;20037;-78
2022/05/20 02:48:24;;;;;;;28.83;10.45;;;;;;;12.21;79.83;102054.09;5010592;28;20053;-78
2022/05/20 02:50:49;;;;;;;18.83;11.30;;;;;;;12.23;79.64;102061.88;5011006;28;20026;-78
2022/05/20 02:53:15;;;;;;;21.33;10.02;;;;;;;12.23;79.81;102049.72;5010623;28;20026;-78
2022/05/20 02:55:41;;;;;;;21.75;10.73;;;;;;;12.22;80.46;102061.03;5010070;28;20021;-78
2022/05/20 02:58:06;;;;;;;33.97;11.90;;;;;;;12.22;80.42;102050.59;5010436;28;20600;-78
2022/05/20 03:05:59;;;;;;;27.58;11.30;;;;;;;12.20;80.54;102056.75;5010356;28;20041;-78
2022/05/20 03:08:25;;;;;;;21.25;11.38;;;;;;;12.19;81.27;102058.47;5010440;28;20042;-79
2022/05/20 03:10:50;;;;;;;25.42;11.88;;;;;;;12.21;80.98;102042.81;5010731;28;20026;-78
2022/05/20 03:13:16;;;;;;;18.55;12.55;;;;;;;12.20;80.56;102041.94;5010468;28;20032;-78
2022/05/20 03:15:43;;;;;;;23.40;12.50;;;;;;;12.17;80.60;102044.56;5010399;28;20022;-78
2022/05/20 03:18:10;;;;;;;38.65;12.10;;;;;;;12.12;80.64;102052.47;5010551;28;20029;-78
2022/05/20 03:20:37;;;;;;;60.10;12.93;;;;;;;12.14;81.77;102052.44;5009858;28;20404;-78
2022/05/20 03:23:02;;;;;;;28.60;12.35;;;;;;;12.17;81.72;102041.13;5013936;28;20132;-78
2022/05/20 03:25:27;;;;;;;25.05;12.52;;;;;;;12.17;81.81;102036.75;5013770;28;20541;-78
2022/05/20 03:27:53;;;;;;;31.30;13.02;;;;;;;12.20;81.77;102036.72;5013757;28;20030;-78
2022/05/20 03:30:18;;;;;;;32.17;13.32;;;;;;;12.22;81.50;102040.19;5013927;28;20030;-78
2022/05/20 03:32:44;;;;;;;25.15;13.02;;;;;;;12.23;81.44;102039.28;5013798;28;20026;-78
2022/05/20 03:35:10;;;;;;;35.25;14.25;;;;;;;12.21;81.72;102041.06;5013726;28;20034;-78
2022/05/20 03:37:35;;;;;;;26.38;12.50;;;;;;;12.20;81.71;102039.31;5013634;28;20033;-78
2022/05/20 03:40:02;;;;;;;18.48;12.82;;;;;;;12.19;81.47;102040.22;5013976;28;20481;-78
2022/05/20 03:42:27;;;;;;;22.67;12.70;;;;;;;12.16;81.51;102039.41;5014159;28;20062;-78
2022/05/20 03:44:53;;;;;;;35.15;12.63;;;;;;;12.13;81.77;102043.75;5013533;28;20093;-78
2022/05/20 03:47:19;;;;;;;66.80;12.80;;;;;;;12.11;82.18;102042.91;5014008;28;20046;-78
2022/05/20 03:49:44;;;;;;;25.52;12.43;;;;;;;12.09;81.95;102047.28;5013854;28;20052;-78
2022/05/20 03:52:10;;;;;;;32.42;12.32;;;;;;;12.09;81.79;102041.22;5013722;28;20021;-78
2022/05/20 03:54:36;;;;;;;20.05;12.70;;;;;;;12.09;81.90;102038.63;5013299;28;20026;-78
2022/05/20 03:57:03;;;;;;;19.58;12.15;;;;;;;12.05;81.55;102036.91;5013916;28;20465;-78
2022/05/20 03:59:30;;;;;;;19.02;11.40;;;;;;;12.02;81.53;102042.16;5013727;28;20109;-78
2022/05/20 04:01:58;;;;;;;22.13;11.63;;;;;;;11.97;81.45;102043.06;5012118;28;20378;-78
2022/05/20 04:04:31;;;;;;;23.33;12.48;;;;;;;11.90;81.59;102040.53;5012546;28;20494;-78
2022/05/20 04:06:58;;;;;;;20.60;11.00;;;;;;;11.82;81.67;102030.19;5013687;28;20033;-78
2022/05/20 04:09:24;;;;;;;15.25;11.40;;;;;;;11.80;81.93;102024.13;5011762;28;20026;-78
2022/05/20 04:11:53;;;;;;;27.13;11.52;;;;;;;11.78;81.41;102028.53;5013843;28;20026;-78
2022/05/20 04:14:19;;;;;;;24.00;11.60;;;;;;;11.76;81.85;102015.50;5012512;28;20034;-78
2022/05/20 04:16:44;;;;;;;21.25;12.48;;;;;;;11.80;82.30;102011.09;5012803;28;20103;-78
2022/05/20 04:19:09;;;;;;;20.45;12.60;;;;;;;11.84;82.02;102012.78;5013392;28;20034;-78
2022/05/20 04:21:35;;;;;;;17.48;12.50;;;;;;;11.88;82.00;102003.19;5013251;28;20030;-78
2022/05/20 04:24:00;;;;;;;22.80;12.82;;;;;;;11.89;81.91;102005.78;5011584;28;20057;-78
2022/05/20 04:26:26;;;;;;;20.25;12.60;;;;;;;11.92;81.83;102003.16;5012982;28;20033;-78
2022/05/20 04:28:51;;;;;;;15.32;12.45;;;;;;;11.93;82.15;102010.09;5013007;28;20034;-78
2022/05/20 04:31:16;;;;;;;16.08;12.82;;;;;;;11.98;82.42;102004.81;5013083;28;20037;-78
2022/05/20 04:33:42;;;;;;;22.10;11.82;;;;;;;12.02;82.08;102000.44;5011795;28;20339;-78
2022/05/20 04:36:07;;;;;;;19.02;12.45;;;;;;;11.99;81.82;101996.13;5012765;28;20026;-78
2022/05/20 04:38:33;;;;;;;14.57;13.13;;;;;;;12.01;81.99;101998.72;5013418;28;20026;-78
2022/05/20 04:49:11;;;;;;;14.18;12.68;;;;;;;12.11;82.22;102000.34;5012677;28;20120;-78
2022/05/20 04:51:37;;;;;;;14.90;12.90;;;;;;;12.13;82.29;101999.41;5013069;28;20033;-78
2022/05/20 04:56:49;;;;;;;14.82;12.88;;;;;;;12.22;82.32;102003.66;5011765;28;20080;-78
2022/05/20 04:59:15;;;;;;;17.45;13.60;;;;;;;12.24;82.54;102012.31;5012757;28;20048;-78
2022/05/20 05:01:40;;;;;;;16.67;13.85;;;;;;;12.27;82.83;102022.72;5012320;28;20033;-78
2022/05/20 05:04:07;;;;;;;20.17;13.13;;;;;;;12.28;82.88;102021.84;5011159;28;20029;-78
2022/05/20 05:06:33;;;;;;;15.85;14.18;;;;;;;12.32;83.11;102024.38;5011933;28;20095;-78
2022/05/20 05:08:58;;;;;;;15.70;14.00;;;;;;;12.35;82.99;102027.84;5011763;28;20034;-78
2022/05/20 05:11:23;;;;;;;17.95;15.00;;;;;;;12.40;83.51;102028.59;5012070;28;20045;-78
2022/05/20 05:13:49;;;;;;;19.67;16.00;;;;;;;12.50;83.88;102038.94;5012116;28;20113;-78
2022/05/20 05:16:14;;;;;;;22.05;17.23;;;;;;;12.57;83.23;102033.59;5012111;28;20096;-78
2022/05/20 05:18:39;;;;;;;21.85;17.48;;;;;;;12.63;83.59;102032.63;5012387;28;20034;-78
2022/05/20 05:21:04;;;;;;;23.08;18.08;;;;;;;12.72;83.43;102034.25;5012327;28;20033;-78
2022/05/20 05:23:30;;;;;;;21.65;16.80;;;;;;;12.81;83.65;102026.25;5012166;28;20416;-78
2022/05/20 05:25:55;;;;;;;23.83;18.17;;;;;;;12.88;83.98;102025.28;5012234;28;20037;-78
2022/05/20 05:28:21;;;;;;;24.10;18.42;;;;;;;12.95;84.13;102025.19;5012518;28;20034;-78
2022/05/20 05:30:49;;;;;;;25.83;18.77;;;;;;;13.01;84.06;102015.50;5011891;28;20232;-78
2022/05/20 05:33:15;;;;;;;25.77;19.63;;;;;;;13.06;83.93;102007.56;5011752;28;20401;-78
2022/05/20 05:35:40;;;;;;;24.77;19.52;;;;;;;13.11;83.73;102004.88;5012420;28;20372;-78
2022/05/20 05:38:06;;;;;;;27.08;19.77;;;;;;;13.17;84.38;102010.84;5011744;28;20483;-78
2022/05/20 05:40:35;;;;;;;28.50;21.38;;;;;;;13.29;84.31;102016.75;5012304;28;20029;-78
2022/05/20 05:43:02;;;;;;;26.05;21.10;;;;;;;13.42;84.34;102012.16;5006442;28;20033;-78
2022/05/20 05:45:28;;;;;;;28.00;21.23;;;;;;;13.53;84.55;102018.06;5005512;28;20025;-79
2022/05/20 05:47:59;;;;;;;26.67;20.60;;;;;;;13.59;84.32;102009.25;5006134;28;20533;-78
2022/05/20 05:50:25;;;;;;;27.08;20.77;;;;;;;13.68;84.40;101998.59;5006339;28;20029;-78
2022/05/20 05:52:58;;;;;;;27.27;20.85;;;;;;;13.76;84.61;101996.69;5006979;28;20034;-79
2022/05/20 05:55:24;;;;;;;25.40;19.20;;;;;;;13.83;83.79;102000.03;5006336;28;20033;-78
2022/05/20 05:57:49;;;;;;;27.25;18.27;;;;;;;13.87;82.91;101992.97;5006384;28;20065;-78
2022/05/20 06:00:15;;;;;;;24.10;17.55;;;;;;;13.92;82.83;101989.38;5006815;28;20448;-79
2022/05/20 06:02:40;;;;;;;20.52;16.48;;;;;;;14.01;83.64;101993.53;5006085;28;20022;-78
2022/05/20 06:05:06;;;;;;;24.58;17.10;;;;;;;14.08;83.31;101983.84;5005785;28;20400;-78
2022/05/20 06:07:31;;;;;;;23.88;16.92;;;;;;;14.13;83.56;101970.63;5005308;28;20034;-79
2022/05/20 06:09:57;;;;;;;27.60;17.85;;;;;;;14.13;82.33;101978.50;5006132;28;20060;-79
2022/05/20 06:12:22;;;;;;;24.50;17.65;;;;;;;14.18;82.98;101968.75;5006287;28;20034;-79
2022/05/20 06:14:48;;;;;;;25.33;18.35;;;;;;;14.24;82.77;101959.03;5006468;28;20353;-78
2022/05/20 06:17:13;;;;;;;23.17;17.48;;;;;;;14.28;82.19;101970.28;5006088;28;20080;-78
2022/05/20 06:19:40;;;;;;;24.52;17.58;;;;;;;14.32;83.02;101971.06;5005663;28;20037;-78
2022/05/20 06:22:05;;;;;;;24.27;17.60;;;;;;;14.37;82.72;101970.06;5005461;28;20033;-79
2022/05/20 06:24:31;;;;;;;22.48;15.27;;;;;;;14.42;81.15;101968.19;5005557;28;20036;-79
2022/05/20 06:26:56;;;;;;;23.20;16.23;;;;;;;14.47;80.74;101968.09;5005209;28;20033;-79
2022/05/20 06:29:21;;;;;;;19.85;14.90;;;;;;;14.53;80.29;101964.44;5007445;28;20159;-78
2022/05/20 06:31:46;;;;;;;21.17;14.65;;;;;;;14.58;79.37;101978.31;5005577;28;20036;-78
2022/05/20 06:34:12;;;;;;;20.42;15.02;;;;;;;14.68;78.82;101979.84;5005679;28;20571;-79
2022/05/20 06:42:06;;;;;;;17.48;12.27;;;;;;;14.85;76.88;101965.47;5006004;28;20044;-78
2022/05/20 06:44:32;;;;;;;19.88;12.38;;;;;;;14.90;77.86;101963.56;5005510;28;20029;-78
2022/05/20 06:46:57;;;;;;;16.92;12.20;;;;;;;14.96;77.23;101962.53;5004288;28;20131;-78
2022/05/20 06:49:22;;;;;;;16.17;11.93;;;;;;;15.02;76.13;101955.41;5005700;28;20032;-78
2022/05/20 06:51:49;;;;;;;17.08;11.52;;;;;;;15.08;75.31;101950.88;5005946;28;20088;-78
2022/05/20 06:54:15;;;;;;;15.48;10.85;;;;;;;15.11;74.69;101945.56;5003834;28;20057;-78
2022/05/20 06:56:41;;;;;;;15.10;10.43;;;;;;;15.17;75.20;101942.78;5007764;28;20053;-78
2022/05/20 06:59:07;;;;;;;15.27;10.50;;;;;;;15.22;74.97;101943.50;5008547;28;20037;-78
2022/05/20 07:01:33;;;;;;;18.30;10.63;;;;;;;15.26;74.35;101939.88;5009608;28;20495;-78
2022/05/20 07:03:58;;;;;;;14.52;10.05;;;;;;;15.29;73.40;101934.56;5009599;28;20515;-78
2022/05/20 07:06:25;;;;;;;13.35;9.07;;;;;;;15.36;73.21;101934.41;5010263;28;20033;-78
2022/05/20 07:08:52;;;;;;;11.98;8.98;;;;;;;15.48;73.28;101939.28;5009408;28;20033;-78
2022/05/20 07:11:22;;;;;;;13.82;9.73;;;;;;;15.61;73.94;101935.41;5009011;28;20038;-78
2022/05/20 07:13:49;;;;;;;12.48;9.30;;;;;;;15.74;74.08;101924.53;5008711;28;20071;-79
2022/05/20 07:16:14;;;;;;;11.65;8.48;;;;;;;15.86;72.94;101923.34;5009392;28;20022;-78
2022/05/20 07:18:40;;;;;;;11.68;8.30;;;;;;;15.88;69.03;101917.16;5008816;28;20043;-78
2022/05/20 07:21:06;;;;;;;11.13;7.75;;;;;;;15.89;69.57;101908.34;5008596;28;20030;-78
2022/05/20 07:23:32;;;;;;;10.98;7.63;;;;;;;15.95;69.69;101911.69;5009015;28;20039;-78
2022/05/20 07:25:59;;;;;;;10.35;7.63;;;;;;;16.01;68.95;101906.28;5009739;28;20112;-78
2022/05/20 07:28:24;;;;;;;9.90;7.95;;;;;;;16.06;68.39;101904.34;5009040;28;20434;-79
2022/05/20 07:30:50;;;;;;;13.13;8.70;;;;;;;16.11;68.19;101897.19;5008589;28;20120;-79
2022/05/20 07:33:16;;;;;;;11.18;8.75;;;;;;;16.14;68.29;101902.34;5009196;28;20040;-79
2022/05/20 07:35:41;;;;;;;12.45;9.20;;;;;;;16.22;67.55;101895.09;5008486;28;20392;-79
2022/05/20 07:38:07;;;;;;;14.57;8.88;;;;;;;16.28;68.54;101888.78;5008665;28;20559;-78
2022/05/20 07:40:33;;;;;;;12.73;9.10;;;;;;;16.36;67.28;101888.53;5008546;28;20042;-78
2022/05/20 07:42:58;;;;;;;15.63;9.05;;;;;;;16.42;67.84;101880.41;5008936;28;20038;-78
2022/05/20 07:45:24;;;;;;;12.93;8.77;;;;;;;16.48;67.28;101890.72;5008788;28;20473;-79
2022/05/20 07:47:50;;;;;;;13.82;8.52;;;;;;;16.54;67.56;101884.41;5008423;28;20054;-79
2022/05/20 07:50:16;;;;;;;12.93;9.45;;;;;;;16.59;67.69;101886.84;5009054;28;20025;-78
2022/05/20 07:55:35;;;;;;;12.25;8.00;;;;;;;16.70;66.62;101884.75;5007410;28;20496;-78
2022/05/20 07:58:03;;;;;;;11.38;7.47;;;;;;;16.73;64.87;101871.50;5007588;28;20033;-79
2022/05/20 08:00:30;;;;;;;13.10;7.70;;;;;;;16.82;67.29;101868.53;5009959;28;20033;-79
2022/05/20 08:03:00;;;;;;;8.85;6.35;;;;;;;16.88;63.48;101859.56;5007499;28;20041;-79
2022/05/20 08:05:25;;;;;;;9.60;6.70;;;;;;;16.93;63.96;101859.38;5008006;28;20562;-79
2022/05/20 08:07:51;;;;;;;11.48;7.35;;;;;;;17.01;65.62;101862.66;5008167;28;20178;-79
2022/05/20 08:10:21;;;;;;;12.43;7.88;;;;;;;17.10;64.86;101862.28;5008378;28;20048;-79
2022/05/20 08:12:48;;;;;;;11.98;7.20;;;;;;;17.19;64.55;101861.09;5007461;28;20637;-78
2022/05/20 08:15:15;;;;;;;11.98;7.68;;;;;;;17.26;64.05;101859.97;5008261;28;20100;-79
2022/05/20 08:17:43;;;;;;;12.93;6.82;;;;;;;17.33;64.19;101854.47;5008647;28;20050;-78
2022/05/20 08:20:16;;;;;;;9.45;7.22;;;;;;;17.39;64.12;101841.06;5008565;28;20026;-78
2022/05/20 08:22:41;;;;;;;11.43;7.85;;;;;;;17.46;63.58;101847.81;5009171;28;20037;-78
2022/05/20 08:25:07;;;;;;;9.55;7.18;;;;;;;17.55;64.41;101854.50;5008679;28;20032;-78
2022/05/20 08:27:32;;;;;;;11.52;7.47;;;;;;;17.61;63.26;101846.34;5007453;28;20440;-79
2022/05/20 08:30:06;;;;;;;10.25;7.25;;;;;;;17.66;62.56;101839.13;5007624;28;20104;-79
2022/05/20 08:32:31;;;;;;;10.20;7.35;;;;;;;17.71;62.26;101837.19;5006545;28;20475;-79
2022/05/20 08:34:56;;;;;;;9.20;7.13;;;;;;;17.74;63.04;101834.44;5007669;28;20053;-78
2022/05/20 08:37:22;;;;;;;10.10;7.15;;;;;;;17.79;61.04;101833.38;5007422;28;20029;-79
2022/05/20 08:39:47;;;;;;;12.52;7.47;;;;;;;17.84;61.86;101831.44;5008091;28;20061;-78
2022/05/20 08:42:17;;;;;;;8.25;5.65;;;;;;;17.90;61.83;101833.81;5008392;28;20026;-79
2022/05/20 08:44:43;;;;;;;8.20;6.13;;;;;;;17.93;61.07;101831.06;5006936;28;20029;-78
2022/05/20 08:47:47;;;;;;;12.98;6.03;;;;;;;17.98;62.71;101823.84;5007244;28;20030;-78
2022/05/20 08:50:23;;;;;;;9.05;5.65;;;;;;;18.00;61.28;101806.22;4946420;29;20047;-78
2022/05/20 08:52:54;;;;;;;9.95;5.80;;;;;;;18.00;60.25;101797.47;4946432;29;20359;-79
2022/05/20 08:55:20;;;;;;;10.07;6.82;;;;;;;17.98;60.98;101791.41;4981442;28;20045;-79
2022/05/20 08:57:51;;;;;;;8.13;5.20;;;;;;;18.00;61.95;101779.03;5006714;28;20092;-78
2022/05/20 09:00:18;;;;;;;10.20;6.10;;;;;;;18.05;61.86;101767.38;5004705;28;20038;-78
2022/05/20 09:02:43;;;;;;;9.48;5.30;;;;;;;18.12;61.37;101762.72;5007486;28;20280;-78
2022/05/20 09:05:22;;;;;;;10.48;5.57;;;;;;;18.24;63.34;101758.69;5006273;28;20201;-79
2022/05/20 09:07:57;;;;;;;8.07;5.32;;;;;;;18.32;61.47;101748.66;5005644;28;20394;-79
2022/05/20 09:10:56;;;;;;;9.93;5.10;;;;;;;18.35;61.64;101756.44;5006506;28;20026;-79
2022/05/20 09:16:14;;;;;;;8.85;4.80;;;;;;;18.35;59.73;101763.50;5006455;28;20068;-79
2022/05/20 09:18:48;;;;;;;6.45;4.68;;;;;;;18.32;59.85;101759.19;5020830;28;20083;-79
2022/05/20 09:21:38;;;;;;;8.38;4.60;;;;;;;18.33;60.06;101752.16;5006449;28;20033;-78
2022/05/20 09:24:07;;;;;;;6.82;4.60;;;;;;;18.33;60.56;101746.91;5001117;28;20060;-78
2022/05/20 09:26:37;;;;;;;8.10;4.22;;;;;;;18.40;58.87;101742.22;5006072;28;20108;-78
2022/05/20 09:29:08;;;;;;;6.47;4.18;;;;;;;18.49;58.42;101744.44;5006366;28;20133;-79
2022/05/20 09:31:34;;;;;;;;;;;;;;;18.61;61.10;101738.63;5006990;28;20026;-78
2022/05/20 09:34:19;;;;;;;7.00;3.80;;;;;;;18.71;60.41;101733.75;5005874;28;19917;-79
2022/05/20 09:37:04;;;;;;;6.68;4.18;;;;;;;18.74;59.94;101712.53;5004831;28;20304;-79
2022/05/20 09:39:34;;;;;;;6.25;3.88;;;;;;;18.77;59.08;101703.66;5006137;28;20064;-79
2022/05/20 09:42:04;;;;;;;6.47;4.32;;;;;;;18.83;59.17;101705.13;5006115;28;20059;-79
2022/05/20 09:44:58;;;;;;;7.00;4.40;;;;;;;18.87;59.96;101698.81;5005396;28;20034;-79
2022/05/20 09:47:31;;;;;;;8.13;4.53;;;;;;;18.87;58.16;101694.38;5001380;28;20319;-79
2022/05/20 09:50:09;;;;;;;9.65;4.75;;;;;;;18.95;59.29;101696.69;5006153;28;20389;-79
2022/05/20 09:52:58;;;;;;;7.53;4.88;;;;;;;19.08;60.19;101683.75;5006666;28;20060;-79
2022/05/20 09:55:35;;;;;;;7.00;4.22;;;;;;;19.23;59.55;101677.75;5005170;28;20026;-80
2022/05/20 09:58:21;;;;;;;6.22;5.15;;;;;;;19.35;58.88;101675.41;5005648;28;20040;-79
2022/05/20 10:00:57;;;;;;;7.13;4.68;;;;;;;19.47;59.26;101653.69;5004355;28;20449;-79
2022/05/20 10:03:38;;;;;;;9.18;4.68;;;;;;;19.59;59.81;101652.22;5003207;28;20026;-78
2022/05/20 10:06:26;;;;;;;6.78;4.32;;;;;;;19.68;58.78;101635.06;5003772;28;20030;-78
2022/05/20 10:09:08;;;;;;;7.72;4.85;;;;;;;19.76;59.11;101626.72;5007089;28;20057;-79
2022/05/20 10:11:37;;;;;;;8.00;4.78;;;;;;;19.82;57.66;101621.97;5005948;28;20422;-79
2022/05/20 10:14:09;;;;;;;7.63;4.93;;;;;;;19.91;58.12;101617.19;5006007;28;20030;-79
2022/05/20 10:16:45;;;;;;;6.90;4.85;;;;;;;20.05;59.44;101611.19;5004825;28;20112;-80
2022/05/20 10:19:21;;;;;;;8.60;5.40;;;;;;;20.13;57.13;101593.13;5005466;28;20109;-79
2022/05/20 10:21:59;;;;;;;8.52;5.63;;;;;;;20.20;58.54;101588.34;5006241;28;20034;-79
2022/05/20 10:24:42;;;;;;;12.85;6.75;;;;;;;20.23;58.32;101582.91;5004853;28;20044;-79
2022/05/20 10:27:10;;;;;;;9.30;6.25;;;;;;;20.24;58.22;101558.19;5003080;28;20065;-81
2022/05/20 10:33:07;;;;;;;9.23;6.38;;;;;;;20.30;57.76;101552.56;4943836;28;20102;-80
2022/05/20 10:35:38;;;;;;;12.35;7.15;;;;;;;20.31;58.43;101544.56;5001491;28;20084;-80
2022/05/20 10:38:21;;;;;;;11.93;7.63;;;;;;;20.34;58.57;101543.53;5005808;28;20054;-79
2022/05/20 10:40:55;;;;;;;9.07;6.68;;;;;;;20.32;58.53;101550.72;5004641;28;20156;-79
2022/05/20 10:43:29;;;;;;;12.77;7.30;;;;;;;20.29;58.13;101540.31;5005279;28;20041;-80
2022/05/20 10:48:52;;;;;;;10.90;7.60;;;;;;;20.21;57.59;101521.38;5003685;28;20061;-80
2022/05/20 10:51:32;;;;;;;13.95;7.88;;;;;;;20.21;58.62;101505.50;5005390;28;20041;-80
2022/05/20 10:54:07;;;;;;;11.57;7.35;;;;;;;20.25;58.91;101493.84;5006443;28;20029;-80
2022/05/20 10:57:00;;;;;;;14.60;8.25;;;;;;;20.32;58.79;101477.56;5005140;28;20034;-80
2022/05/20 10:59:56;;;;;;;12.15;7.88;;;;;;;20.39;59.94;101459.56;5005385;28;20145;-81
2022/05/20 11:02:44;;;;;;;14.73;8.75;;;;;;;20.46;59.83;101442.41;5004735;28;20064;-80
2022/05/20 11:05:24;;;;;;;11.27;8.77;;;;;;;20.52;58.73;101429.75;5004860;28;20057;-80
2022/05/20 11:08:14;;;;;;;15.43;10.63;;;;;;;20.52;58.77;101408.63;5003907;28;20158;-80
2022/05/20 11:10:49;;;;;;;15.00;11.15;;;;;;;20.52;59.08;101411.25;5003921;28;20113;-80
2022/05/20 11:13:17;;;;;;;17.13;12.13;;;;;;;20.52;58.49;101393.63;5004610;28;20129;-81
2022/05/20 11:16:12;;;;;;;17.27;11.23;;;;;;;20.54;59.53;101390.88;5004580;28;20034;-81
2022/05/20 11:18:52;;;;;;;19.08;12.13;;;;;;;20.53;59.35;101389.16;5001577;28;20432;-81
2022/05/20 11:21:49;;;;;;;16.25;12.13;;;;;;;20.54;59.54;101370.59;5006478;28;20114;-80
2022/05/20 11:24:49;;;;;;;14.50;11.68;;;;;;;20.58;59.58;101365.97;5004795;28;20062;-80
2022/05/20 11:27:41;;;;;;;17.13;11.85;;;;;;;20.62;59.73;101349.00;5005553;28;20036;-80
2022/05/20 11:30:34;;;;;;;18.38;13.13;;;;;;;20.62;59.68;101346.34;5005772;28;20034;-80
2022/05/20 11:33:09;;;;;;;19.58;14.02;;;;;;;20.60;59.27;101338.50;5005761;28;20069;-80
2022/05/20 11:35:46;;;;;;;20.95;13.73;;;;;;;20.62;60.07;101335.78;5005507;28;20057;-80
2022/05/20 11:38:35;;;;;;;20.60;13.52;;;;;;;20.63;59.85;101333.03;5004707;28;20057;-80
2022/05/20 11:41:23;;;;;;;18.30;13.35;;;;;;;20.61;59.78;101326.13;5004560;28;20034;-80
2022/05/20 11:44:05;;;;;;;17.42;12.95;;;;;;;20.50;60.55;101323.28;5007371;28;20030;-80
2022/05/20 11:46:52;;;;;;;18.33;12.93;;;;;;;20.39;60.81;101316.84;5007839;28;20026;-80
2022/05/20 11:49:42;;;;;;;23.63;14.43;;;;;;;20.30;61.50;101320.06;5007535;28;20050;-80
2022/05/20 11:52:40;;;;;;;19.35;13.05;;;;;;;20.21;61.82;101321.44;5007202;28;20108;-80
2022/05/20 11:55:11;;;;;;;20.10;13.60;;;;;;;20.11;61.58;101321.13;5002458;28;20064;-80
2022/05/20 11:57:46;;;;;;;21.38;14.40;;;;;;;20.01;62.30;101314.69;5007770;28;20058;-79
2022/05/20 12:00:14;;;;;;;19.63;14.40;;;;;;;19.94;62.90;101308.06;5005676;28;20432;-79
2022/05/20 12:02:48;;;;;;;21.42;14.10;;;;;;;19.85;63.50;101294.41;5006269;28;20503;-79
2022/05/20 12:05:18;;;;;;;23.55;14.80;;;;;;;19.75;63.98;101282.69;5007480;28;20473;-79